Have a Safe July 4th! 

Flight Track Log - Related Links

Times and Time Zones

All times are in EDT time to prevent confusion due to time zone crossing. See the BER6771 flight status page for this flight to view local times or setup timezone preferences in your user account.

Time Position Orientation Groundspeed Altitude Reporting Facility
EDT Latitude Longitude Course Direction KTS MPH feet Rate Location/Type
Thu 01:17:00 AM 49.8850 10.2060 305° West  Level Estimated
Thu 01:18:00 AM 49.9232 10.1181 304° West  Level Estimated
Thu 01:19:00 AM 49.9614 10.0300 304° West  Level Estimated
Thu 01:20:00 AM 49.9996 9.9417 304° West  Level Estimated
Thu 01:21:00 AM 50.0376 9.8533 304° West  Level Estimated
Thu 01:22:00 AM 50.0756 9.7648 304° West  Level Estimated
Thu 01:23:00 AM 50.1136 9.6761 304° West  Level Estimated
Thu 01:24:00 AM 50.1514 9.5873 304° West  Level Estimated
Thu 01:25:00 AM 50.1892 9.4984 304° West  Level Estimated
Thu 01:26:00 AM 50.2270 9.4093 304° West  Level Estimated
Thu 01:27:00 AM 50.2646 9.3200 303° West  Level Estimated
Thu 01:28:00 AM 50.3022 9.2307 303° West  Level Estimated
Thu 01:29:00 AM 50.3397 9.1411 303° West  Level Estimated
Thu 01:30:00 AM 50.3772 9.0515 303° West  Level Estimated
Thu 01:31:00 AM 50.4146 8.9617 303° West  Level Estimated
Thu 01:32:00 AM 50.4519 8.8717 303° West  Level Estimated
Thu 01:33:00 AM 50.4892 8.7817 303° West  Level Estimated
Thu 01:34:00 AM 50.5263 8.6914 303° West  Level Estimated
Thu 01:35:00 AM 50.5634 8.6011 303° West  Level Estimated
Thu 01:36:00 AM 50.6005 8.5105 303° West  Level Estimated
Thu 01:37:00 AM 50.6375 8.4199 303° West  Level Estimated
Thu 01:38:00 AM 50.6744 8.3291 303° West  Level Estimated
Thu 01:39:00 AM 50.7112 8.2382 303° West  Level Estimated
Thu 01:40:00 AM 50.7480 8.1471 303° West  Level Estimated
Thu 01:41:00 AM 50.7846 8.0559 302° West  Level Estimated
Thu 01:42:00 AM 50.8213 7.9645 302° West  Level Estimated
Thu 01:43:00 AM 50.8578 7.8730 302° West  Level Estimated
Thu 01:44:00 AM 50.8943 7.7813 302° West  Level Estimated
Thu 01:45:00 AM 50.9307 7.6895 302° West  Level Estimated
Thu 01:46:00 AM 50.9670 7.5976 302° West  Level Estimated
Thu 01:47:00 AM 51.0032 7.5055 302° West  Level Estimated
Thu 01:48:00 AM 51.0394 7.4133 302° West  Level Estimated
Thu 01:49:00 AM 51.0755 7.3209 302° West  Level Estimated
Thu 01:50:00 AM 51.1116 7.2284 302° West  Level Estimated
Thu 01:51:00 AM 51.1475 7.1357 302° West  Level Estimated
Thu 01:52:00 AM 51.1834 7.0429 302° West  Level Estimated
Thu 01:53:00 AM 51.2192 6.9500 302° West  Level Estimated
Thu 01:54:00 AM 51.2550 6.8569 302° West  Level Estimated
Thu 01:55:00 AM 51.2895 6.7668 301° West  Level Estimated
Thu 01:56:00 AM 51.2895 6.7668 46° Northeast  Level Estimated
Thu 01:57:00 AM 51.2895 6.7668 314° West  Level Estimated
Thu 01:58:00 AM 51.2895 6.7668 46° Northeast  Level Estimated
Thu 01:59:00 AM 51.2895 6.7668 314° West  Level Estimated
Thu 02:00:00 AM 51.2895 6.7668 46° Northeast  Level Estimated
Thu 02:01:00 AM 51.2895 6.7668 314° West  Level Estimated
Thu 02:02:00 AM 51.2895 6.7668 46° Northeast  Level Estimated
Thu 02:03:00 AM 51.2895 6.7668 314° West  Level Estimated
Thu 02:04:00 AM 51.2895 6.7668 46° Northeast  Level Estimated
Thu 02:05:00 AM 51.2895 6.7668 314° West  Level Estimated
Thu 02:06:00 AM 51.2895 6.7668 46° Northeast  Level Estimated
Thu 02:07:00 AM 51.2895 6.7668 314° West  Level Estimated
Thu 02:08:00 AM 51.2895 6.7668 46° Northeast  Level Estimated
Thu 02:09:00 AM 51.2895 6.7668 314° West  Level Estimated
Thu 02:10:00 AM 51.2895 6.7668 46° Northeast  Level Estimated
Thu 02:11:00 AM 51.2895 6.7668 314° West  Level Estimated

Login

Don't have an account? Register now (free) for customized features, flight alerts, and more!